createdAt,value
2017-08-01T00:00:27.421Z,18.51
2017-08-01T00:02:55.036Z,18.48
2017-08-01T00:05:22.721Z,18.50
2017-08-01T00:07:50.331Z,18.49
2017-08-01T00:10:17.936Z,18.27
2017-08-01T00:12:45.618Z,18.50
2017-08-01T00:15:13.237Z,18.38
2017-08-01T00:17:40.860Z,18.33
2017-08-01T00:20:08.558Z,18.25
2017-08-01T00:22:36.194Z,18.34
2017-08-01T00:25:03.825Z,18.19
2017-08-01T00:27:31.549Z,18.17
2017-08-01T00:29:59.175Z,18.12
2017-08-01T00:32:26.804Z,18.09
2017-08-01T00:34:54.817Z,18.09
2017-08-01T00:37:22.685Z,17.99
2017-08-01T00:39:50.414Z,17.98
2017-08-01T00:42:18.402Z,17.96
2017-08-01T00:44:46.083Z,17.88
2017-08-01T00:47:13.892Z,17.77
2017-08-01T00:49:41.607Z,17.81
2017-08-01T00:52:09.681Z,17.77
2017-08-01T00:54:37.417Z,17.90
2017-08-01T00:57:05.410Z,17.80
2017-08-01T00:59:33.229Z,17.73
2017-08-01T01:02:01.149Z,17.57
2017-08-01T01:04:29.215Z,17.52
2017-08-01T01:06:57.024Z,17.54
2017-08-01T01:09:24.654Z,17.47
2017-08-01T01:11:52.312Z,17.48
2017-08-01T01:14:19.952Z,17.59
2017-08-01T01:16:47.791Z,17.68
2017-08-01T01:19:15.663Z,17.91
2017-08-01T01:21:43.527Z,17.93
2017-08-01T01:24:11.514Z,17.69
2017-08-01T01:26:39.195Z,17.52
2017-08-01T01:29:06.867Z,17.43
2017-08-01T01:31:34.537Z,17.55
2017-08-01T01:34:02.204Z,17.81
2017-08-01T01:36:29.817Z,17.89
2017-08-01T01:38:57.425Z,17.77
2017-08-01T01:41:25.105Z,17.83
2017-08-01T01:43:52.732Z,17.81
2017-08-01T01:46:20.349Z,17.62
2017-08-01T01:48:48.039Z,17.55
2017-08-01T01:51:15.684Z,17.43
2017-08-01T01:53:43.314Z,17.29
2017-08-01T01:56:12.137Z,17.31
2017-08-01T01:58:39.882Z,17.37
2017-08-01T02:01:07.894Z,17.45
2017-08-01T02:03:35.978Z,17.67
2017-08-01T02:06:03.613Z,17.70
2017-08-01T02:08:31.239Z,17.69
2017-08-01T02:10:58.938Z,17.58
2017-08-01T02:13:26.571Z,17.66
2017-08-01T02:15:54.200Z,17.49
2017-08-01T02:18:21.881Z,17.37
2017-08-01T02:20:49.503Z,17.25
2017-08-01T02:23:17.127Z,17.33
2017-08-01T02:25:44.801Z,17.33
2017-08-01T02:28:12.417Z,17.17
2017-08-01T02:30:40.080Z,17.25
2017-08-01T02:33:07.759Z,17.25
2017-08-01T02:35:35.376Z,17.27
2017-08-01T02:38:03.001Z,17.14
2017-08-01T02:40:30.697Z,17.15
2017-08-01T02:42:58.315Z,17.11
2017-08-01T02:45:25.932Z,17.13
2017-08-01T02:47:53.610Z,17.33
2017-08-01T02:50:21.444Z,17.22
2017-08-01T02:52:49.057Z,17.17
2017-08-01T02:55:16.741Z,17.16
2017-08-01T02:57:44.410Z,17.24
2017-08-01T03:00:12.256Z,17.19
2017-08-01T03:02:40.250Z,17.27
2017-08-01T03:05:08.065Z,17.19
2017-08-01T03:07:35.760Z,17.12
2017-08-01T03:10:03.521Z,17.07
2017-08-01T03:12:31.493Z,17.13
2017-08-01T03:14:59.410Z,17.27
2017-08-01T03:17:27.370Z,17.28
2017-08-01T03:19:55.320Z,17.13
2017-08-01T03:22:22.926Z,17.06
2017-08-01T03:24:50.570Z,17.09
2017-08-01T03:27:18.190Z,17.12
2017-08-01T03:29:45.796Z,17.08
2017-08-01T03:32:13.519Z,17.25
2017-08-01T03:34:41.188Z,17.33
2017-08-01T03:37:08.846Z,17.39
2017-08-01T03:39:36.502Z,17.60
2017-08-01T03:42:04.124Z,17.64
2017-08-01T03:44:31.750Z,17.74
2017-08-01T03:46:59.429Z,17.81
2017-08-01T03:49:27.050Z,17.83
2017-08-01T03:51:54.751Z,18.12
2017-08-01T03:54:22.755Z,19.80
2017-08-01T03:56:50.362Z,22.02
2017-08-01T03:59:18.038Z,23.84
2017-08-01T04:01:45.957Z,24.84
2017-08-01T04:04:13.579Z,25.42
2017-08-01T04:06:41.193Z,25.87
2017-08-01T04:09:08.862Z,26.40
2017-08-01T04:11:36.471Z,27.46
2017-08-01T04:14:04.092Z,27.71
2017-08-01T04:16:31.775Z,28.14
2017-08-01T04:18:59.385Z,28.24
2017-08-01T04:21:27.009Z,28.02
2017-08-01T04:23:54.655Z,29.08
2017-08-01T04:26:22.269Z,29.57
2017-08-01T04:28:49.875Z,29.52
2017-08-01T04:31:17.567Z,29.17
2017-08-01T04:33:45.236Z,29.59
2017-08-01T04:36:12.877Z,29.51
2017-08-01T04:38:40.535Z,30.10
2017-08-01T04:41:08.154Z,29.96
2017-08-01T04:43:35.763Z,30.55
2017-08-01T04:46:03.428Z,30.80
2017-08-01T04:48:31.044Z,30.12
2017-08-01T04:50:58.668Z,30.02
2017-08-01T04:53:26.339Z,30.95
2017-08-01T04:55:53.962Z,31.26
2017-08-01T04:58:21.590Z,31.28
2017-08-01T05:00:49.261Z,31.72
2017-08-01T05:03:16.890Z,32.40
2017-08-01T05:05:44.507Z,32.37
2017-08-01T05:08:12.178Z,33.46
2017-08-01T05:10:39.792Z,33.79
2017-08-01T05:13:07.425Z,34.22
2017-08-01T05:15:35.199Z,33.79
2017-08-01T05:18:02.838Z,33.19
2017-08-01T05:20:30.494Z,34.60
2017-08-01T05:22:58.195Z,35.42
2017-08-01T05:25:25.812Z,35.76
2017-08-01T05:27:53.427Z,34.72
2017-08-01T05:30:21.124Z,36.07
2017-08-01T05:32:48.734Z,35.66
2017-08-01T05:35:16.402Z,36.19
2017-08-01T05:37:44.069Z,35.21
2017-08-01T05:40:11.688Z,34.25
2017-08-01T05:42:39.294Z,34.62
2017-08-01T05:45:06.971Z,35.07
2017-08-01T05:47:34.587Z,36.56
2017-08-01T05:50:02.235Z,37.67
2017-08-01T05:52:29.954Z,37.84
2017-08-01T05:54:58.446Z,35.94
2017-08-01T05:57:26.474Z,37.52
2017-08-01T05:59:54.224Z,38.89
2017-08-01T06:02:21.868Z,38.88
2017-08-01T06:04:49.537Z,38.86
2017-08-01T06:07:17.233Z,39.52
2017-08-01T06:09:44.858Z,38.68
2017-08-01T06:12:12.484Z,37.53
2017-08-01T06:14:40.169Z,38.24
2017-08-01T06:17:07.789Z,38.85
2017-08-01T06:19:35.403Z,39.62
2017-08-01T06:22:09.160Z,38.42
2017-08-01T06:24:37.151Z,39.03
2017-08-01T06:27:05.018Z,39.05
2017-08-01T06:29:32.885Z,39.20
2017-08-01T06:32:00.629Z,39.65
2017-08-01T06:34:28.500Z,39.57
2017-08-01T06:36:56.415Z,39.85
2017-08-01T06:39:24.281Z,40.55
2017-08-01T06:41:52.144Z,40.43
2017-08-01T06:44:19.969Z,40.92
2017-08-01T06:46:47.572Z,40.70
2017-08-01T06:49:15.222Z,40.82
2017-08-01T06:51:42.940Z,40.91
2017-08-01T06:54:10.912Z,41.14
2017-08-01T06:56:38.620Z,42.08
2017-08-01T06:59:06.621Z,41.58
2017-08-01T07:01:34.568Z,42.07
2017-08-01T07:04:02.229Z,41.36
2017-08-01T07:06:30.142Z,41.15
2017-08-01T07:08:58.168Z,40.35
2017-08-01T07:11:25.733Z,40.06
2017-08-01T07:13:53.401Z,40.81
2017-08-01T07:16:20.963Z,41.11
2017-08-01T07:18:48.532Z,42.34
2017-08-01T07:21:16.249Z,42.77
2017-08-01T07:23:43.994Z,41.40
2017-08-01T07:26:11.859Z,41.35
2017-08-01T07:28:39.873Z,41.53
2017-08-01T07:31:07.595Z,41.16
2017-08-01T07:33:35.609Z,40.85
2017-08-01T07:36:03.679Z,40.47
2017-08-01T07:38:31.648Z,41.03
2017-08-01T07:40:59.621Z,40.88
2017-08-01T07:43:27.551Z,39.50
2017-08-01T07:45:55.400Z,37.83
2017-08-01T07:48:23.221Z,38.90
2017-08-01T07:50:51.234Z,39.43
2017-08-01T07:53:19.076Z,40.18
2017-08-01T07:55:46.921Z,39.82
2017-08-01T07:58:14.892Z,39.60
2017-08-01T08:00:42.762Z,39.10
2017-08-01T08:03:10.470Z,37.33
2017-08-01T08:05:38.494Z,37.00
2017-08-01T08:08:06.432Z,37.54
2017-08-01T08:10:34.006Z,39.07
2017-08-01T08:13:01.618Z,38.19
2017-08-01T08:15:29.180Z,37.84
2017-08-01T08:17:56.747Z,39.28
2017-08-01T08:20:24.389Z,38.33
2017-08-01T08:22:52.333Z,38.51
2017-08-01T08:25:19.994Z,39.16
2017-08-01T08:27:47.921Z,39.24
2017-08-01T08:30:15.935Z,38.89
2017-08-01T08:32:43.777Z,38.91
2017-08-01T08:35:11.821Z,39.88
2017-08-01T08:37:39.640Z,38.26
2017-08-01T08:40:07.809Z,37.99
2017-08-01T08:42:35.854Z,37.50
2017-08-01T08:45:03.717Z,38.36
2017-08-01T08:47:31.415Z,37.91
2017-08-01T08:49:59.482Z,38.31
2017-08-01T08:52:27.246Z,37.02
2017-08-01T08:54:55.060Z,37.50
2017-08-01T08:57:23.081Z,37.39
2017-08-01T08:59:50.796Z,38.54
2017-08-01T09:02:18.613Z,39.13
2017-08-01T09:04:46.537Z,39.29
2017-08-01T09:07:14.522Z,37.74
2017-08-01T09:09:42.266Z,38.56
2017-08-01T09:12:10.284Z,38.40
2017-08-01T09:14:38.002Z,37.08
2017-08-01T09:17:05.849Z,36.25
2017-08-01T09:19:33.714Z,36.59
2017-08-01T09:22:01.546Z,36.87
2017-08-01T09:24:29.415Z,38.64
2017-08-01T09:26:57.412Z,39.43
2017-08-01T09:29:25.254Z,40.05
2017-08-01T09:31:53.121Z,38.17
2017-08-01T09:34:21.038Z,37.28
2017-08-01T09:36:48.930Z,37.82
2017-08-01T09:39:16.936Z,38.31
2017-08-01T09:41:44.790Z,39.53
2017-08-01T09:44:13.184Z,39.45
2017-08-01T09:46:41.026Z,40.02
2017-08-01T09:49:08.806Z,40.18
2017-08-01T09:51:36.537Z,39.74
2017-08-01T09:54:04.339Z,40.07
2017-08-01T09:56:32.070Z,40.15
2017-08-01T09:59:00.012Z,39.97
2017-08-01T10:01:27.779Z,39.57
2017-08-01T10:03:55.748Z,38.91
2017-08-01T10:06:23.456Z,38.91
2017-08-01T10:08:51.530Z,39.45
2017-08-01T10:11:19.299Z,39.23
2017-08-01T10:13:47.241Z,38.60
2017-08-01T10:16:15.058Z,38.98
2017-08-01T10:18:42.900Z,38.81
2017-08-01T10:21:10.661Z,37.15
2017-08-01T10:23:38.662Z,36.37
2017-08-01T10:26:06.455Z,36.49
2017-08-01T10:28:34.466Z,37.47
2017-08-01T10:31:02.536Z,38.20
2017-08-01T10:33:30.403Z,38.24
2017-08-01T10:35:58.064Z,38.64
2017-08-01T10:38:26.112Z,38.40
2017-08-01T10:40:53.853Z,37.73
2017-08-01T10:43:21.827Z,37.60
2017-08-01T10:45:49.592Z,37.70
2017-08-01T10:48:17.460Z,37.84
2017-08-01T10:50:45.279Z,39.15
2017-08-01T10:53:13.136Z,38.98
2017-08-01T10:55:40.800Z,38.54
2017-08-01T10:58:08.488Z,37.42
2017-08-01T11:00:36.370Z,38.11
2017-08-01T11:03:04.188Z,38.40
2017-08-01T11:05:31.907Z,37.62
2017-08-01T11:07:59.897Z,37.97
2017-08-01T11:10:27.791Z,37.70
2017-08-01T11:12:55.509Z,38.18
2017-08-01T11:15:23.526Z,39.01
2017-08-01T11:17:51.365Z,39.60
2017-08-01T11:20:19.263Z,39.06
2017-08-01T11:22:47.178Z,39.01
2017-08-01T11:25:15.143Z,38.38
2017-08-01T11:27:42.864Z,38.62
2017-08-01T11:30:10.560Z,38.56
2017-08-01T11:32:38.392Z,39.05
2017-08-01T11:35:06.053Z,39.21
2017-08-01T11:37:33.958Z,40.10
2017-08-01T11:40:01.626Z,38.35
2017-08-01T11:42:29.242Z,38.52
2017-08-01T11:44:57.680Z,36.48
2017-08-01T11:47:25.592Z,36.07
2017-08-01T11:49:53.444Z,36.64
2017-08-01T11:52:21.509Z,37.30
2017-08-01T11:54:49.252Z,38.11
2017-08-01T11:57:17.263Z,37.29
2017-08-01T11:59:45.339Z,36.73
2017-08-01T12:02:12.999Z,36.55
2017-08-01T12:04:40.659Z,36.43
2017-08-01T12:07:08.515Z,36.97
2017-08-01T12:09:36.124Z,37.83
2017-08-01T12:12:03.737Z,37.35
2017-08-01T12:14:31.414Z,37.43
2017-08-01T12:16:59.287Z,36.47
2017-08-01T12:19:27.100Z,37.72
2017-08-01T12:21:54.913Z,37.48
2017-08-01T12:24:22.641Z,37.73
2017-08-01T12:26:50.505Z,37.24
2017-08-01T12:29:18.492Z,37.46
2017-08-01T12:31:46.175Z,37.45
2017-08-01T12:34:14.007Z,37.51
2017-08-01T12:36:42.110Z,37.85
2017-08-01T12:39:09.942Z,37.92
2017-08-01T12:41:37.663Z,37.96
2017-08-01T12:44:05.404Z,39.50
2017-08-01T12:46:33.172Z,38.05
2017-08-01T12:49:00.833Z,38.70
2017-08-01T12:51:28.754Z,38.33
2017-08-01T12:53:56.622Z,36.92
2017-08-01T12:56:24.488Z,36.13
2017-08-01T12:58:52.355Z,35.26
2017-08-01T13:01:20.222Z,34.37
2017-08-01T13:03:48.186Z,33.67
2017-08-01T13:06:16.008Z,33.02
2017-08-01T13:08:43.699Z,33.11
2017-08-01T13:11:11.540Z,32.26
2017-08-01T13:13:39.297Z,32.12
2017-08-01T13:16:07.150Z,32.07
2017-08-01T13:18:34.994Z,31.81
2017-08-01T13:21:03.105Z,31.91
2017-08-01T13:23:30.769Z,31.86
2017-08-01T13:25:58.475Z,31.93
2017-08-01T13:28:26.487Z,31.83
2017-08-01T13:30:54.330Z,31.77
2017-08-01T13:33:22.150Z,31.81
2017-08-01T13:35:50.089Z,31.74
2017-08-01T13:38:17.932Z,31.93
2017-08-01T13:40:45.798Z,31.98
2017-08-01T13:43:13.492Z,31.91
2017-08-01T13:45:41.210Z,31.64
2017-08-01T13:48:09.222Z,31.73
2017-08-01T13:50:37.091Z,31.74
2017-08-01T13:53:04.811Z,31.83
2017-08-01T13:55:32.639Z,31.93
2017-08-01T13:58:00.694Z,31.79
2017-08-01T14:00:28.537Z,31.52
2017-08-01T14:02:56.398Z,31.47
2017-08-01T14:05:24.499Z,31.56
2017-08-01T14:07:52.165Z,31.53
2017-08-01T14:10:20.027Z,31.66
2017-08-01T14:12:48.101Z,31.67
2017-08-01T14:15:15.764Z,31.65
2017-08-01T14:17:43.834Z,31.77
2017-08-01T14:20:11.707Z,31.80
2017-08-01T14:22:39.358Z,31.75
2017-08-01T14:25:07.032Z,31.80
2017-08-01T14:27:35.101Z,31.58
2017-08-01T14:30:02.801Z,31.68
2017-08-01T14:32:30.410Z,31.74
2017-08-01T14:34:58.897Z,31.66
2017-08-01T14:37:26.622Z,31.55
2017-08-01T14:39:54.428Z,31.57
2017-08-01T14:42:22.453Z,31.41
2017-08-01T14:44:50.273Z,31.44
2017-08-01T14:47:18.135Z,31.56
2017-08-01T14:49:45.898Z,31.73
2017-08-01T14:52:13.549Z,31.81
2017-08-01T14:54:41.267Z,31.83
2017-08-01T14:57:09.160Z,31.89
2017-08-01T14:59:37.158Z,31.94
2017-08-01T15:02:04.825Z,31.91
2017-08-01T15:04:32.486Z,31.77
2017-08-01T15:07:00.322Z,31.69
2017-08-01T15:09:28.013Z,31.67
2017-08-01T15:11:56.012Z,31.67
2017-08-01T15:14:23.609Z,31.70
2017-08-01T15:16:51.473Z,31.69
2017-08-01T15:19:19.306Z,31.66
2017-08-01T15:21:47.131Z,31.56
2017-08-01T15:24:14.807Z,31.64
2017-08-01T15:26:42.453Z,31.64
2017-08-01T15:29:10.341Z,31.65
2017-08-01T15:31:37.997Z,31.71
2017-08-01T15:34:05.656Z,31.56
2017-08-01T15:36:33.322Z,31.41
2017-08-01T15:39:00.985Z,31.40
2017-08-01T15:41:28.845Z,31.40
2017-08-01T15:43:56.439Z,31.38
2017-08-01T15:46:24.033Z,31.41
2017-08-01T15:48:51.682Z,31.42
2017-08-01T15:51:19.289Z,31.35
2017-08-01T15:53:47.039Z,31.21
2017-08-01T15:56:15.059Z,31.25
2017-08-01T15:58:42.967Z,31.11
2017-08-01T16:01:10.752Z,31.06
2017-08-01T16:03:38.426Z,31.03
2017-08-01T16:06:06.087Z,30.97
2017-08-01T16:08:34.080Z,30.94
2017-08-01T16:11:01.815Z,31.02
2017-08-01T16:13:29.479Z,30.97
2017-08-01T16:15:57.082Z,30.97
2017-08-01T16:18:24.748Z,30.94
2017-08-01T16:20:52.386Z,30.86
2017-08-01T16:23:19.983Z,30.70
2017-08-01T16:25:47.932Z,30.63
2017-08-01T16:28:15.529Z,30.52
2017-08-01T16:30:43.133Z,30.42
2017-08-01T16:33:10.911Z,30.17
2017-08-01T16:35:38.528Z,30.13
2017-08-01T16:38:06.137Z,30.01
2017-08-01T16:40:33.959Z,29.87
2017-08-01T16:43:01.628Z,29.76
2017-08-01T16:45:29.347Z,29.64
2017-08-01T16:47:57.158Z,29.44
2017-08-01T16:50:24.853Z,29.30
2017-08-01T16:52:52.461Z,29.12
2017-08-01T16:55:20.118Z,28.90
2017-08-01T16:57:47.709Z,28.74
2017-08-01T17:00:15.324Z,28.61
2017-08-01T17:02:42.992Z,28.49
2017-08-01T17:05:10.614Z,28.27
2017-08-01T17:07:38.228Z,28.00
2017-08-01T17:10:05.894Z,27.86
2017-08-01T17:12:33.565Z,27.94
2017-08-01T17:15:01.425Z,27.85
2017-08-01T17:17:29.513Z,27.77
2017-08-01T17:19:57.171Z,27.72
2017-08-01T17:22:24.879Z,27.61
2017-08-01T17:24:52.546Z,27.47
2017-08-01T17:27:20.575Z,27.22
2017-08-01T17:29:48.233Z,27.03
2017-08-01T17:32:16.269Z,26.87
2017-08-01T17:34:43.969Z,26.67
2017-08-01T17:37:11.626Z,26.47
2017-08-01T17:39:39.345Z,26.35
2017-08-01T17:42:07.341Z,26.11
2017-08-01T17:44:35.028Z,25.92
2017-08-01T17:47:02.873Z,25.75
2017-08-01T17:49:30.966Z,25.64
2017-08-01T17:51:58.687Z,25.51
2017-08-01T17:54:26.499Z,25.40
2017-08-01T17:56:54.520Z,25.25
2017-08-01T17:59:22.339Z,25.17
2017-08-01T18:01:50.274Z,25.08
2017-08-01T18:04:17.954Z,24.97
2017-08-01T18:06:45.689Z,24.87
2017-08-01T18:09:13.695Z,24.76
2017-08-01T18:11:41.557Z,24.72
2017-08-01T18:14:09.221Z,24.69
2017-08-01T18:16:36.884Z,24.59
2017-08-01T18:19:04.957Z,24.52
2017-08-01T18:21:32.606Z,24.48
2017-08-01T18:24:00.328Z,24.41
2017-08-01T18:26:28.173Z,24.44
2017-08-01T18:28:55.816Z,24.42
2017-08-01T18:31:23.473Z,24.32
2017-08-01T18:33:51.341Z,24.14
2017-08-01T18:36:19.017Z,24.03
2017-08-01T18:38:46.663Z,23.99
2017-08-01T18:41:14.342Z,23.87
2017-08-01T18:43:42.271Z,23.86
2017-08-01T18:46:09.877Z,23.83
2017-08-01T18:48:37.751Z,23.79
2017-08-01T18:51:05.693Z,23.70
2017-08-01T18:53:33.288Z,23.53
2017-08-01T18:56:01.182Z,23.42
2017-08-01T18:58:28.985Z,23.35
2017-08-01T19:00:56.714Z,23.23
2017-08-01T19:03:24.387Z,23.12
2017-08-01T19:05:52.008Z,23.13
2017-08-01T19:08:19.632Z,23.07
2017-08-01T19:10:47.358Z,23.01
2017-08-01T19:13:15.120Z,22.99
2017-08-01T19:15:42.752Z,22.94
2017-08-01T19:18:10.556Z,22.94
2017-08-01T19:20:38.176Z,22.91
2017-08-01T19:23:05.893Z,22.85
2017-08-01T19:25:33.878Z,22.75
2017-08-01T19:28:01.535Z,22.76
2017-08-01T19:30:29.438Z,22.77
2017-08-01T19:32:57.160Z,22.73
2017-08-01T19:35:24.781Z,22.63
2017-08-01T19:37:52.396Z,22.57
2017-08-01T19:40:20.113Z,22.59
2017-08-01T19:42:47.723Z,22.59
2017-08-01T19:45:15.319Z,22.60
2017-08-01T19:47:43.002Z,22.63
2017-08-01T19:50:10.600Z,22.63
2017-08-01T19:52:38.184Z,22.64
2017-08-01T19:55:05.965Z,22.58
2017-08-01T19:57:33.586Z,22.53
2017-08-01T20:00:01.212Z,22.44
2017-08-01T20:02:29.017Z,22.29
2017-08-01T20:04:56.686Z,22.19
2017-08-01T20:07:24.578Z,22.09
2017-08-01T20:09:52.415Z,21.94
2017-08-01T20:12:20.481Z,21.89
2017-08-01T20:14:48.109Z,21.87
2017-08-01T20:17:15.763Z,21.85
2017-08-01T20:19:43.397Z,21.77
2017-08-01T20:22:11.031Z,21.67
2017-08-01T20:24:38.705Z,21.59
2017-08-01T20:27:06.661Z,21.56
2017-08-01T20:29:34.317Z,21.53
2017-08-01T20:32:01.997Z,21.58
2017-08-01T20:34:29.625Z,21.58
2017-08-01T20:36:57.272Z,21.60
2017-08-01T20:39:24.937Z,21.55
2017-08-01T20:41:52.532Z,21.52
2017-08-01T20:44:20.147Z,21.49
2017-08-01T20:46:47.845Z,21.46
2017-08-01T20:49:15.464Z,21.37
2017-08-01T20:51:43.079Z,21.29
2017-08-01T20:54:10.878Z,21.25
2017-08-01T20:56:38.573Z,21.24
2017-08-01T20:59:06.208Z,21.30
2017-08-01T21:01:33.815Z,21.41
2017-08-01T21:04:01.489Z,21.25
2017-08-01T21:06:29.149Z,21.27
2017-08-01T21:08:56.741Z,21.28
2017-08-01T21:11:24.395Z,21.23
2017-08-01T21:13:51.985Z,21.30
2017-08-01T21:16:19.588Z,21.26
2017-08-01T21:18:47.227Z,21.19
2017-08-01T21:21:14.827Z,21.23
2017-08-01T21:23:42.448Z,21.25
2017-08-01T21:26:10.134Z,21.21
2017-08-01T21:28:37.718Z,21.14
2017-08-01T21:31:05.325Z,21.06
2017-08-01T21:33:32.974Z,21.09
2017-08-01T21:36:00.590Z,21.03
2017-08-01T21:38:28.281Z,20.89
2017-08-01T21:40:55.945Z,20.92
2017-08-01T21:43:23.574Z,20.88
2017-08-01T21:45:51.185Z,20.78
2017-08-01T21:48:18.855Z,20.87
2017-08-01T21:50:46.457Z,20.88
2017-08-01T21:53:14.088Z,20.70
2017-08-01T21:55:41.741Z,20.71
2017-08-01T21:58:09.341Z,20.74
2017-08-01T22:00:36.972Z,20.64
2017-08-01T22:03:04.664Z,20.64
2017-08-01T22:05:32.274Z,20.59
2017-08-01T22:07:59.879Z,20.58
2017-08-01T22:10:27.546Z,20.55
2017-08-01T22:12:55.170Z,20.51
2017-08-01T22:15:22.840Z,20.44
2017-08-01T22:17:50.557Z,20.38
2017-08-01T22:20:18.153Z,20.30
2017-08-01T22:22:45.846Z,20.31
2017-08-01T22:25:13.523Z,20.26
2017-08-01T22:27:41.119Z,20.30
2017-08-01T22:30:08.768Z,20.23
2017-08-01T22:32:36.451Z,20.19
2017-08-01T22:35:04.061Z,20.24
2017-08-01T22:37:31.681Z,20.07
2017-08-01T22:39:59.388Z,20.05
2017-08-01T22:42:27.012Z,19.96
2017-08-01T22:44:54.632Z,19.86
2017-08-01T22:47:22.285Z,19.93
2017-08-01T22:49:49.894Z,19.98
2017-08-01T22:52:17.506Z,20.11
2017-08-01T22:54:45.228Z,20.03
2017-08-01T22:57:12.841Z,19.88
2017-08-01T22:59:40.479Z,19.77
2017-08-01T23:02:08.154Z,19.69
2017-08-01T23:04:35.770Z,19.63
2017-08-01T23:07:03.381Z,19.77
2017-08-01T23:09:31.045Z,19.81
2017-08-01T23:11:58.667Z,19.89
2017-08-01T23:14:26.281Z,19.90
2017-08-01T23:16:54.695Z,19.95
2017-08-01T23:19:22.310Z,19.91
2017-08-01T23:21:49.936Z,19.84
2017-08-01T23:24:17.677Z,19.89
2017-08-01T23:26:45.287Z,20.05
2017-08-01T23:29:12.926Z,19.83
2017-08-01T23:31:40.589Z,19.75
2017-08-01T23:34:08.194Z,19.64
2017-08-01T23:36:35.813Z,19.57
2017-08-01T23:39:03.546Z,19.61
2017-08-01T23:41:31.353Z,19.56
2017-08-01T23:43:58.962Z,19.50
2017-08-01T23:46:26.626Z,19.50
2017-08-01T23:48:54.248Z,19.49
2017-08-01T23:51:21.867Z,19.52
2017-08-01T23:53:49.550Z,19.36
2017-08-01T23:56:17.177Z,19.31
2017-08-01T23:58:44.814Z,19.31
